Time;durP1;ratioP1;P1;durP2;ratioP2;P2;SDS_P1;SDS_P2;PMS_P1;PMS_P2;Temp;Humidity;BMP_temperature;BMP_pressure;BME280_temperature;BME280_humidity;BME280_pressure;Samples;Min_cycle;Max_cycle;Signal;HPM_P1;HPM_P2
2023/02/10 00:00:05;;;;;;;83.82;31.58;;;-10.40;99.90;;;;;;4149123;28;20567;-64
2023/02/10 00:02:06;;;;;;;90.05;34.22;;;-10.40;99.90;;;;;;4150242;28;20033;-62
2023/02/10 00:04:10;;;;;;;85.00;34.50;;;-10.50;99.90;;;;;;4149032;28;20030;-62
2023/02/10 00:06:12;;;;;;;81.78;33.15;;;-10.50;99.90;;;;;;4150115;28;20478;-63
2023/02/10 00:08:13;;;;;;;84.53;31.80;;;-10.50;99.90;;;;;;4148930;28;20077;-68
2023/02/10 00:10:15;;;;;;;77.20;32.00;;;-10.50;99.90;;;;;;4150238;28;20432;-63
2023/02/10 00:12:16;;;;;;;80.28;33.50;;;-10.50;99.90;;;;;;4148656;28;20034;-63
2023/02/10 00:14:18;;;;;;;72.57;31.08;;;-10.50;99.90;;;;;;4150153;28;20379;-63
2023/02/10 00:16:20;;;;;;;72.47;30.95;;;-10.50;99.90;;;;;;4149109;28;20411;-63
2023/02/10 00:18:21;;;;;;;76.75;29.80;;;-10.50;99.90;;;;;;4150159;28;20033;-64
2023/02/10 00:20:22;;;;;;;69.97;29.17;;;-10.50;99.90;;;;;;4149353;28;20038;-63
2023/02/10 00:22:23;;;;;;;80.78;29.88;;;-10.50;99.90;;;;;;4149395;28;20034;-63
2023/02/10 00:24:24;;;;;;;67.65;29.15;;;-10.50;99.90;;;;;;4149409;28;20037;-63
2023/02/10 00:26:26;;;;;;;68.35;28.73;;;-10.40;99.90;;;;;;4148548;28;20064;-64
2023/02/10 00:28:27;;;;;;;74.13;29.10;;;-10.40;99.90;;;;;;4147323;28;20050;-63
2023/02/10 00:30:28;;;;;;;66.95;26.50;;;-10.40;99.90;;;;;;4146599;28;20076;-63
2023/02/10 00:32:29;;;;;;;74.70;29.05;;;-10.40;99.90;;;;;;4147480;28;20091;-63
2023/02/10 00:34:30;;;;;;;71.80;26.55;;;-10.40;99.90;;;;;;4146227;28;20038;-63
2023/02/10 00:36:32;;;;;;;78.43;30.05;;;-10.50;99.90;;;;;;4147581;28;20560;-63
2023/02/10 00:38:34;;;;;;;72.15;28.67;;;-10.50;99.90;;;;;;4146309;28;20084;-62
2023/02/10 00:40:35;;;;;;;71.53;28.85;;;-10.50;99.90;;;;;;4147341;28;20022;-62
2023/02/10 00:42:36;;;;;;;75.35;29.92;;;-10.60;99.90;;;;;;4145785;28;20083;-62
2023/02/10 00:44:37;;;;;;;67.20;26.85;;;-10.60;99.90;;;;;;4147091;28;20096;-70
2023/02/10 00:46:38;;;;;;;67.40;30.60;;;-10.60;99.90;;;;;;4146158;28;20037;-63
2023/02/10 00:48:40;;;;;;;67.93;29.15;;;-10.70;99.90;;;;;;4147059;28;20091;-62
2023/02/10 00:50:41;;;;;;;71.38;26.58;;;-10.70;99.90;;;;;;4146225;28;20112;-63
2023/02/10 00:52:42;;;;;;;72.63;28.13;;;-10.60;99.90;;;;;;4146680;28;20046;-75
2023/02/10 00:54:43;;;;;;;82.82;30.33;;;-10.60;99.90;;;;;;4146433;28;20042;-63
2023/02/10 00:56:44;;;;;;;75.85;29.63;;;-10.60;99.90;;;;;;4146304;28;20077;-71
2023/02/10 00:58:47;;;;;;;103.78;36.15;;;-10.70;99.90;;;;;;4147214;28;20080;-62
2023/02/10 01:00:48;;;;;;;84.07;33.00;;;-10.70;99.90;;;;;;4145768;28;20104;-63
2023/02/10 01:02:49;;;;;;;75.07;31.48;;;-10.70;99.90;;;;;;4146982;28;20037;-63
2023/02/10 01:04:50;;;;;;;74.53;29.90;;;-10.70;99.90;;;;;;4145570;28;20092;-63
2023/02/10 01:06:51;;;;;;;73.20;31.30;;;-10.70;99.90;;;;;;4147107;28;20487;-63
2023/02/10 01:08:52;;;;;;;70.97;29.27;;;-10.70;99.90;;;;;;4145805;28;20076;-64
2023/02/10 01:11:05;;;;;;;76.13;30.10;;;-10.70;99.90;;;;;;4146895;28;20490;-62
2023/02/10 01:13:08;;;;;;;68.43;27.95;;;-10.70;99.90;;;;;;4145895;28;20084;-63
2023/02/10 01:15:10;;;;;;;76.07;28.85;;;-10.70;99.90;;;;;;4146562;28;20091;-62
2023/02/10 01:17:11;;;;;;;75.78;29.98;;;-10.80;99.90;;;;;;4145556;28;20080;-72
2023/02/10 01:19:12;;;;;;;72.50;29.30;;;-10.90;99.90;;;;;;4146661;28;20437;-62
2023/02/10 01:21:16;;;;;;;72.18;28.23;;;-11.00;99.90;;;;;;4145345;28;20034;-62
2023/02/10 01:23:18;;;;;;;77.03;28.42;;;-11.00;99.90;;;;;;4146568;28;20080;-63
2023/02/10 01:25:19;;;;;;;79.47;31.27;;;-11.00;99.90;;;;;;4144276;28;20037;-62
2023/02/10 01:27:20;;;;;;;71.72;29.48;;;-11.00;99.90;;;;;;4146410;28;20072;-64
2023/02/10 01:29:21;;;;;;;68.90;28.67;;;-11.00;99.90;;;;;;4161541;28;20108;-63
2023/02/10 01:31:22;;;;;;;72.50;27.77;;;-11.00;99.90;;;;;;4145956;28;20061;-64
2023/02/10 01:33:24;;;;;;;81.35;30.27;;;-11.00;99.90;;;;;;4146191;28;20525;-63
2023/02/10 01:35:25;;;;;;;65.80;28.45;;;-11.00;99.90;;;;;;4145358;28;20096;-64
2023/02/10 01:37:26;;;;;;;72.03;29.20;;;-11.00;99.90;;;;;;4146108;28;20034;-64
2023/02/10 01:39:28;;;;;;;79.03;30.90;;;-11.00;99.90;;;;;;4145121;28;20084;-64
2023/02/10 01:41:29;;;;;;;71.35;28.50;;;-11.10;99.90;;;;;;4146321;28;20471;-63
2023/02/10 01:43:31;;;;;;;78.35;30.60;;;-11.10;99.90;;;;;;4145335;28;20029;-63
2023/02/10 01:45:36;;;;;;;77.95;30.55;;;-11.10;99.90;;;;;;4146556;28;20034;-63
2023/02/10 01:47:37;;;;;;;73.45;29.38;;;-11.10;99.90;;;;;;4145353;28;20482;-64
2023/02/10 01:49:46;;;;;;;75.32;29.65;;;-11.10;99.90;;;;;;4146348;28;20037;-64
2023/02/10 01:54:24;;;;;;;70.68;27.98;;;-11.20;99.90;;;;;;4569966;23;20066;-63
2023/02/10 01:56:25;;;;;;;68.63;27.95;;;-11.10;99.90;;;;;;4128866;28;20034;-63
2023/02/10 01:58:29;;;;;;;72.85;27.05;;;-11.10;99.90;;;;;;4130581;28;20096;-74
2023/02/10 02:00:30;;;;;;;68.80;27.98;;;-11.20;99.90;;;;;;4128925;28;20066;-62
2023/02/10 02:02:34;;;;;;;63.38;25.40;;;-11.20;99.90;;;;;;4129613;28;20478;-67
2023/02/10 02:04:50;;;;;;;66.78;24.90;;;-11.20;99.90;;;;;;4139093;28;20485;-63
2023/02/10 02:06:52;;;;;;;68.30;28.08;;;-11.30;99.90;;;;;;4145729;28;20088;-64
2023/02/10 02:08:53;;;;;;;67.03;28.02;;;-11.30;99.90;;;;;;4145263;28;20095;-62
2023/02/10 02:10:57;;;;;;;72.10;27.80;;;-11.30;99.90;;;;;;4145440;28;20034;-68
2023/02/10 02:13:13;;;;;;;74.97;27.55;;;-11.40;99.90;;;;;;4145547;28;20026;-63
2023/02/10 02:15:32;;;;;;;69.20;27.17;;;-11.40;99.90;;;;;;4145283;28;20042;-63
2023/02/10 02:17:42;;;;;;;74.80;27.50;;;-11.40;99.90;;;;;;4145234;28;20026;-64
2023/02/10 02:22:59;;;;;;;72.22;27.38;;;-11.50;99.90;;;;;;4142646;28;20088;-64
2023/02/10 02:25:16;;;;;;;64.75;26.10;;;-11.50;99.90;;;;;;4131008;28;20097;-64
2023/02/10 02:27:28;;;;;;;74.65;26.27;;;-11.50;99.90;;;;;;4128835;28;20034;-65
2023/02/10 02:29:54;;;;;;;63.78;26.33;;;-11.40;99.90;;;;;;4129680;28;20081;-71
2023/02/10 02:32:01;;;;;;;75.15;26.50;;;-11.40;99.90;;;;;;4128420;28;20088;-65
2023/02/10 02:34:11;;;;;;;69.40;25.92;;;-11.40;99.90;;;;;;4129532;28;20093;-64
2023/02/10 02:36:21;;;;;;;64.07;25.92;;;-11.40;99.90;;;;;;4128506;28;20537;-64
2023/02/10 02:38:22;;;;;;;62.33;23.90;;;-11.40;99.90;;;;;;4129638;28;20046;-63
2023/02/10 02:40:24;;;;;;;54.58;22.70;;;-11.40;99.90;;;;;;4128410;28;20517;-63
2023/02/10 02:42:27;;;;;;;58.00;22.83;;;-11.40;99.90;;;;;;4135935;28;20038;-63
2023/02/10 02:44:28;;;;;;;56.28;24.23;;;-11.30;99.90;;;;;;4144371;28;20038;-66
2023/02/10 02:47:01;;;;;;;55.90;24.30;;;-11.30;99.90;;;;;;4145775;28;20049;-62
2023/02/10 02:49:36;;;;;;;63.33;24.05;;;-11.30;99.90;;;;;;4144068;28;20042;-63
2023/02/10 02:51:56;;;;;;;56.15;22.45;;;-11.30;99.90;;;;;;4144503;28;20021;-70
2023/02/10 02:54:06;;;;;;;69.18;24.23;;;-11.40;99.90;;;;;;4144397;28;20097;-64
2023/02/10 02:56:15;;;;;;;65.65;24.77;;;-11.50;99.90;;;;;;4144988;28;20042;-64
2023/02/10 02:58:50;;;;;;;67.22;24.35;;;-11.50;99.90;;;;;;4145008;28;20088;-68
2023/02/10 03:00:55;;;;;;;59.60;22.90;;;-11.40;99.90;;;;;;4144369;28;20029;-64
2023/02/10 03:02:59;;;;;;;66.00;23.48;;;-11.40;99.90;;;;;;4143575;28;20068;-66
2023/02/10 03:05:00;;;;;;;69.45;24.52;;;-11.40;99.90;;;;;;4144919;28;20092;-63
2023/02/10 03:07:02;;;;;;;63.08;23.23;;;-11.40;99.90;;;;;;4144178;28;20410;-65
2023/02/10 03:09:03;;;;;;;59.97;23.33;;;-11.40;99.90;;;;;;4145192;28;20038;-66
2023/02/10 03:11:05;;;;;;;56.53;23.88;;;-11.40;99.90;;;;;;4144211;28;20038;-64
2023/02/10 03:13:06;;;;;;;70.72;24.73;;;-11.40;99.90;;;;;;4145434;28;20038;-73
2023/02/10 03:15:08;;;;;;;59.63;24.20;;;-11.40;99.90;;;;;;4144249;28;20046;-71
2023/02/10 03:17:09;;;;;;;62.72;23.17;;;-11.40;99.90;;;;;;4145385;28;20049;-62
2023/02/10 03:19:11;;;;;;;63.13;24.50;;;-11.40;99.90;;;;;;4144238;28;20037;-63
2023/02/10 03:21:12;;;;;;;77.35;26.60;;;-11.40;99.90;;;;;;4145285;28;20092;-64
2023/02/10 03:23:13;;;;;;;60.47;24.65;;;-11.40;99.90;;;;;;4144278;28;20038;-63
2023/02/10 03:25:14;;;;;;;65.82;24.52;;;-11.40;99.90;;;;;;4130728;28;20046;-63
2023/02/10 03:27:16;;;;;;;59.95;23.40;;;-11.50;99.90;;;;;;4127968;28;20038;-64
2023/02/10 03:29:17;;;;;;;63.72;24.67;;;-11.50;99.90;;;;;;4128929;28;20046;-64
2023/02/10 03:31:18;;;;;;;63.63;22.83;;;-11.60;99.90;;;;;;4127781;28;20556;-68
2023/02/10 03:33:20;;;;;;;66.80;24.42;;;-11.70;99.90;;;;;;4128549;28;20034;-64
2023/02/10 03:35:21;;;;;;;61.15;25.45;;;-11.80;99.90;;;;;;4127990;28;20046;-63
2023/02/10 03:37:22;;;;;;;55.67;21.45;;;-11.80;99.90;;;;;;4128095;28;20042;-65
2023/02/10 03:39:23;;;;;;;61.40;22.02;;;-11.80;99.90;;;;;;4128632;28;20034;-64
2023/02/10 03:41:24;;;;;;;60.90;23.90;;;-11.70;99.90;;;;;;4127479;28;20096;-67
2023/02/10 03:43:25;;;;;;;63.72;24.40;;;-11.70;99.90;;;;;;4128716;28;20479;-72
2023/02/10 03:45:26;;;;;;;60.80;23.67;;;-11.70;99.90;;;;;;4128039;28;20576;-63
2023/02/10 03:47:28;;;;;;;69.13;26.13;;;-11.70;99.90;;;;;;4143964;28;20092;-63
2023/02/10 03:49:29;;;;;;;64.60;24.25;;;-11.70;99.90;;;;;;4127676;28;20144;-75
2023/02/10 03:51:30;;;;;;;56.28;22.42;;;-11.80;99.90;;;;;;4128884;28;20478;-64
2023/02/10 03:53:32;;;;;;;61.75;23.50;;;-11.70;99.90;;;;;;4128590;28;20042;-63
2023/02/10 03:55:33;;;;;;;63.13;23.65;;;-11.70;99.90;;;;;;4143456;28;20556;-73
2023/02/10 03:57:34;;;;;;;59.78;23.58;;;-11.70;99.90;;;;;;4144042;28;20112;-64
2023/02/10 03:59:35;;;;;;;56.17;23.63;;;-11.80;99.90;;;;;;4144615;28;20030;-64
2023/02/10 04:01:38;;;;;;;62.95;24.33;;;-11.80;99.90;;;;;;4143742;28;20050;-66
2023/02/10 04:03:39;;;;;;;70.28;27.45;;;-11.80;99.90;;;;;;4142556;28;20367;-69
2023/02/10 04:05:40;;;;;;;88.10;32.90;;;-11.90;99.90;;;;;;4147017;28;20034;-63
2023/02/10 04:07:41;;;;;;;97.53;32.58;;;-11.90;99.90;;;;;;4144071;28;20089;-62
2023/02/10 04:09:43;;;;;;;66.85;25.25;;;-11.90;99.90;;;;;;4131457;28;20046;-72
2023/02/10 04:11:44;;;;;;;63.80;25.15;;;-11.90;99.90;;;;;;4130323;28;20030;-67
2023/02/10 04:13:45;;;;;;;69.07;24.92;;;-11.80;99.90;;;;;;4130454;28;20038;-63
2023/02/10 04:15:47;;;;;;;80.63;27.52;;;-11.80;99.90;;;;;;4130503;28;20490;-63
2023/02/10 04:17:49;;;;;;;70.03;24.95;;;-11.80;99.90;;;;;;4131537;28;20430;-63
2023/02/10 04:19:50;;;;;;;66.75;24.67;;;-11.80;99.90;;;;;;4130519;28;20088;-64
2023/02/10 04:21:51;;;;;;;65.15;26.33;;;-11.90;99.90;;;;;;4131416;28;20038;-63
2023/02/10 04:23:53;;;;;;;90.30;30.95;;;-11.90;99.90;;;;;;4130364;28;20038;-73
2023/02/10 04:25:55;;;;;;;124.25;39.20;;;-12.00;99.90;;;;;;4145307;28;20528;-64
2023/02/10 04:27:56;;;;;;;78.47;30.30;;;-12.00;99.90;;;;;;4146646;28;20038;-64
2023/02/10 04:29:57;;;;;;;92.43;32.65;;;-12.10;99.90;;;;;;4141188;28;20520;-63
2023/02/10 04:31:58;;;;;;;72.28;26.73;;;-12.00;99.90;;;;;;4130792;28;20367;-63
2023/02/10 04:33:59;;;;;;;84.68;29.52;;;-12.00;99.90;;;;;;4130949;28;20050;-73
2023/02/10 04:36:02;;;;;;;82.93;29.85;;;-12.00;99.90;;;;;;4129239;28;20074;-64
2023/02/10 04:38:03;;;;;;;71.68;30.10;;;-12.00;99.90;;;;;;4130797;28;20552;-69
2023/02/10 04:40:05;;;;;;;74.20;29.13;;;-12.00;99.90;;;;;;4130819;28;20030;-63
2023/02/10 04:42:06;;;;;;;70.57;25.90;;;-12.00;99.90;;;;;;4129808;28;20050;-63
2023/02/10 04:44:07;;;;;;;69.88;24.25;;;-12.10;99.90;;;;;;4135530;28;20089;-64
2023/02/10 04:46:08;;;;;;;64.40;23.63;;;-12.10;99.90;;;;;;4129940;28;20112;-61
2023/02/10 04:48:09;;;;;;;61.72;24.30;;;-12.10;99.90;;;;;;4131123;28;20030;-64
2023/02/10 04:50:10;;;;;;;78.93;30.30;;;-12.10;99.90;;;;;;4130274;28;20039;-67
2023/02/10 04:52:12;;;;;;;125.55;42.63;;;-12.20;99.90;;;;;;4132079;28;20081;-63
2023/02/10 04:54:13;;;;;;;126.22;44.72;;;-12.20;99.90;;;;;;4139052;28;20042;-64
2023/02/10 04:56:14;;;;;;;86.70;34.00;;;-12.20;99.90;;;;;;4138260;28;20458;-64
2023/02/10 04:58:17;;;;;;;80.18;30.23;;;-12.30;99.90;;;;;;4130128;28;20069;-63
2023/02/10 05:00:19;;;;;;;85.72;32.90;;;-12.30;99.90;;;;;;4131877;28;20486;-63
2023/02/10 05:02:20;;;;;;;83.25;36.83;;;-12.30;99.90;;;;;;4129767;28;20080;-68
2023/02/10 05:04:21;;;;;;;77.07;27.98;;;-12.30;99.90;;;;;;4123408;28;20042;-63
2023/02/10 05:06:24;;;;;;;68.97;26.23;;;-12.30;99.90;;;;;;4134558;28;20077;-62
2023/02/10 05:08:25;;;;;;;69.10;23.42;;;-12.30;99.90;;;;;;4134742;28;20096;-69
2023/02/10 05:10:26;;;;;;;64.75;24.42;;;-12.30;99.90;;;;;;4135023;28;20042;-65
2023/02/10 05:12:27;;;;;;;52.70;22.23;;;-12.30;99.90;;;;;;4129160;28;20059;-64
2023/02/10 05:14:28;;;;;;;58.47;22.42;;;-12.30;99.90;;;;;;4133038;28;20050;-72
2023/02/10 05:16:29;;;;;;;57.95;21.85;;;-12.30;99.90;;;;;;4128596;28;20046;-64
2023/02/10 05:18:32;;;;;;;57.92;21.90;;;-12.30;99.90;;;;;;4129262;28;20042;-67
2023/02/10 05:20:34;;;;;;;60.08;22.83;;;-12.30;99.90;;;;;;4128555;28;20034;-66
2023/02/10 05:22:39;;;;;;;57.72;22.13;;;-12.30;99.90;;;;;;4129495;28;20088;-69
2023/02/10 05:24:40;;;;;;;60.88;23.98;;;-12.30;99.90;;;;;;4129054;28;20038;-66
2023/02/10 05:26:41;;;;;;;63.70;24.83;;;-12.30;99.90;;;;;;4130762;28;20478;-64
2023/02/10 05:28:42;;;;;;;72.88;28.40;;;-12.30;99.90;;;;;;4129296;28;20047;-67
2023/02/10 05:30:43;;;;;;;81.22;29.10;;;-12.40;99.90;;;;;;4130299;28;20027;-65
2023/02/10 05:32:45;;;;;;;73.05;27.42;;;-12.40;99.90;;;;;;4129150;28;20108;-74
2023/02/10 05:34:46;;;;;;;75.40;27.52;;;-12.40;99.90;;;;;;4129629;28;20042;-64
2023/02/10 05:36:47;;;;;;;61.22;26.65;;;-12.40;99.90;;;;;;4129156;28;20092;-75
2023/02/10 05:41:07;;;;;;;62.55;22.73;;;-12.40;99.90;;;;;;4129581;28;20441;-68
2023/02/10 05:43:09;;;;;;;57.17;23.73;;;-12.40;99.90;;;;;;4129858;28;20026;-66
2023/02/10 05:45:11;;;;;;;62.28;23.48;;;-12.40;99.90;;;;;;4129595;28;20108;-65
2023/02/10 05:47:12;;;;;;;58.50;22.80;;;-12.40;99.90;;;;;;4130526;28;20027;-68
2023/02/10 05:49:13;;;;;;;61.88;25.17;;;-12.30;99.90;;;;;;4146154;28;20091;-65
2023/02/10 05:51:14;;;;;;;66.75;24.77;;;-12.30;99.90;;;;;;4129998;28;20158;-69
2023/02/10 05:53:16;;;;;;;77.60;27.75;;;-12.10;99.90;;;;;;4130041;28;20140;-73
2023/02/10 05:55:17;;;;;;;70.50;28.40;;;-11.90;99.90;;;;;;4128588;28;20097;-72
2023/02/10 05:57:18;;;;;;;81.72;30.00;;;-11.70;99.90;;;;;;4130118;28;20470;-75
2023/02/10 05:59:19;;;;;;;65.97;27.60;;;-11.50;99.90;;;;;;4129362;28;20035;-78
2023/02/10 06:01:20;;;;;;;70.47;28.48;;;-11.30;99.90;;;;;;4130115;28;20026;-76
2023/02/10 06:03:21;;;;;;;60.47;26.95;;;-11.00;99.90;;;;;;4128955;28;20038;-76
2023/02/10 06:05:23;;;;;;;84.30;30.75;;;-10.70;99.90;;;;;;4129731;28;20471;-80
2023/02/10 06:07:24;;;;;;;67.22;27.10;;;-10.30;99.90;;;;;;4128658;28;20038;-72
2023/02/10 06:09:27;;;;;;;67.72;28.85;;;-10.00;99.90;;;;;;4129969;28;20426;-78
2023/02/10 06:11:28;;;;;;;70.70;27.85;;;-9.70;99.90;;;;;;4128791;28;20033;-68
2023/02/10 06:13:29;;;;;;;72.63;30.10;;;-9.40;99.90;;;;;;4129418;28;20030;-79
2023/02/10 06:15:30;;;;;;;79.05;29.50;;;-9.10;99.90;;;;;;4127723;28;20081;-69
2023/02/10 06:17:32;;;;;;;67.10;28.67;;;-8.90;99.90;;;;;;4128850;28;20034;-66
2023/02/10 06:19:34;;;;;;;70.25;32.42;;;-8.60;99.90;;;;;;4129085;28;20121;-64
2023/02/10 06:21:35;;;;;;;72.50;29.80;;;-8.10;99.90;;;;;;4128863;28;20081;-79
2023/02/10 06:23:36;;;;;;;62.85;27.13;;;-7.90;99.90;;;;;;4129658;28;20030;-70
2023/02/10 06:25:38;;;;;;;74.47;29.65;;;-7.60;99.90;;;;;;4128017;28;20026;-75
2023/02/10 06:27:39;;;;;;;70.45;29.23;;;-7.10;99.90;;;;;;4127393;28;20069;-66
2023/02/10 06:29:40;;;;;;;75.90;29.02;;;-6.80;99.90;;;;;;4128405;28;20031;-66
2023/02/10 06:31:41;;;;;;;64.85;26.98;;;-6.70;99.90;;;;;;4129539;28;20080;-66
2023/02/10 06:33:42;;;;;;;66.90;29.27;;;-6.60;99.90;;;;;;4128338;28;20113;-74
2023/02/10 06:35:45;;;;;;;79.07;32.90;;;-6.50;99.90;;;;;;4129476;28;20046;-64
2023/02/10 06:37:46;;;;;;;84.28;35.38;;;-6.40;99.90;;;;;;4128073;28;20121;-66
2023/02/10 06:39:47;;;;;;;78.18;33.65;;;-6.20;99.90;;;;;;4129556;28;20085;-80
2023/02/10 06:41:48;;;;;;;89.20;37.13;;;-6.00;99.90;;;;;;4128596;28;20057;-68
2023/02/10 06:43:50;;;;;;;76.80;33.03;;;-5.70;99.90;;;;;;4129531;28;20323;-80
2023/02/10 06:45:52;;;;;;;78.17;34.27;;;-5.50;99.90;;;;;;4129246;28;20245;-75
2023/02/10 06:47:53;;;;;;;83.07;36.10;;;-5.20;99.90;;;;;;4128760;28;20276;-66
2023/02/10 06:49:54;;;;;;;85.30;36.23;;;-5.30;99.90;;;;;;4129166;28;20256;-78
2023/02/10 06:51:55;;;;;;;79.73;34.47;;;-5.40;99.90;;;;;;4128408;28;20379;-74
2023/02/10 06:53:56;;;;;;;85.40;35.47;;;-5.00;99.90;;;;;;4129090;28;20289;-77
2023/02/10 06:55:58;;;;;;;80.10;34.97;;;-4.50;99.90;;;;;;4128188;28;20299;-80
2023/02/10 06:57:59;;;;;;;89.67;34.67;;;-4.00;99.90;;;;;;4129380;28;20801;-73
2023/02/10 07:00:03;;;;;;;82.10;34.77;;;-3.50;99.90;;;;;;4128133;28;20287;-69
2023/02/10 07:02:04;;;;;;;75.20;34.47;;;-3.20;99.90;;;;;;4129548;28;20272;-68
2023/02/10 07:04:05;;;;;;;75.17;33.03;;;-3.00;99.90;;;;;;4127786;28;20652;-80
2023/02/10 07:06:06;;;;;;;67.53;31.43;;;-3.10;99.90;;;;;;4128927;28;20264;-72
2023/02/10 07:08:08;;;;;;;68.70;32.60;;;-2.80;99.90;;;;;;4126453;28;20311;-66
2023/02/10 07:10:09;;;;;;;72.20;33.07;;;-2.90;99.90;;;;;;4128865;28;20272;-65
2023/02/10 07:12:10;;;;;;;73.60;32.83;;;-3.10;99.90;;;;;;4128113;28;20268;-77
2023/02/10 07:14:12;;;;;;;73.20;33.97;;;-3.30;99.90;;;;;;4128776;28;20280;-73
2023/02/10 07:16:15;;;;;;;74.87;34.07;;;-3.70;99.90;;;;;;4128187;28;20295;-71
2023/02/10 07:18:16;;;;;;;71.90;34.43;;;-3.80;99.90;;;;;;4128484;28;20272;-65
2023/02/10 07:20:19;;;;;;;74.23;33.50;;;-3.70;99.90;;;;;;4128885;28;20244;-64
2023/02/10 07:22:20;;;;;;;80.07;33.23;;;-3.70;99.90;;;;;;4128142;28;20268;-75
2023/02/10 07:24:21;;;;;;;82.83;34.80;;;-4.10;99.30;;;;;;4129062;28;20334;-81
2023/02/10 07:26:23;;;;;;;84.60;35.03;;;-4.20;99.40;;;;;;4127487;28;20276;-78
2023/02/10 07:28:24;;;;;;;83.37;33.33;;;-4.10;98.60;;;;;;4128659;28;20828;-75
2023/02/10 07:30:25;;;;;;;73.73;32.43;;;-4.40;97.90;;;;;;4127632;28;20283;-78
2023/02/10 07:32:27;;;;;;;66.90;32.37;;;-5.00;98.40;;;;;;4128454;28;20272;-77
2023/02/10 07:34:30;;;;;;;69.43;32.03;;;-5.10;99.20;;;;;;4128115;28;20284;-71
2023/02/10 07:36:31;;;;;;;71.55;32.20;;;-4.80;99.60;;;;;;4128518;28;20495;-76
2023/02/10 07:38:32;;;;;;;73.60;33.10;;;-4.90;99.40;;;;;;4129811;28;20030;-75
2023/02/10 07:40:34;;;;;;;75.90;34.15;;;-5.10;99.40;;;;;;4134087;28;20098;-67
2023/02/10 07:42:35;;;;;;;76.65;32.42;;;-5.10;99.60;;;;;;4129864;28;20092;-65
2023/02/10 07:44:36;;;;;;;64.80;29.42;;;-5.30;99.40;;;;;;4131894;28;20568;-79
2023/02/10 07:46:37;;;;;;;73.90;31.30;;;-5.40;99.90;;;;;;4131171;28;20038;-81
2023/02/10 07:48:38;;;;;;;72.20;32.53;;;-5.30;99.80;;;;;;4131540;28;20425;-77
2023/02/10 07:50:40;;;;;;;76.45;34.50;;;-5.10;99.90;;;;;;4131402;28;20092;-80
2023/02/10 07:52:41;;;;;;;83.60;36.13;;;-5.00;99.90;;;;;;4130833;28;20023;-70
2023/02/10 07:54:42;;;;;;;80.88;35.92;;;-5.00;99.90;;;;;;4131329;28;20047;-81
2023/02/10 07:56:43;;;;;;;74.85;33.70;;;-5.10;99.90;;;;;;4128695;28;20530;-76
2023/02/10 07:58:44;;;;;;;78.78;35.95;;;-4.90;99.90;;;;;;4131683;28;20022;-65
2023/02/10 08:00:45;;;;;;;77.70;33.22;;;-4.60;99.90;;;;;;4130376;28;20431;-81
2023/02/10 08:02:46;;;;;;;82.55;33.22;;;-4.50;99.60;;;;;;4132413;28;20042;-80
2023/02/10 08:04:48;;;;;;;80.25;32.08;;;-4.40;99.60;;;;;;4131038;28;20030;-70
2023/02/10 08:06:49;;;;;;;71.78;31.95;;;-4.30;99.90;;;;;;4131728;28;20100;-75
2023/02/10 08:08:50;;;;;;;70.93;31.15;;;-4.20;99.90;;;;;;4130920;28;20077;-66
2023/02/10 08:10:51;;;;;;;71.78;32.55;;;-4.40;99.80;;;;;;4131819;28;20038;-64
2023/02/10 08:12:52;;;;;;;66.57;30.92;;;-3.80;99.90;;;;;;4130679;28;20030;-78
2023/02/10 08:14:53;;;;;;;64.05;29.48;;;-3.50;99.70;;;;;;4131175;28;20498;-81
2023/02/10 08:16:55;;;;;;;65.53;29.70;;;-3.60;99.10;;;;;;4131242;28;20043;-72
2023/02/10 08:18:56;;;;;;;62.45;28.48;;;-3.80;98.90;;;;;;4132218;28;20144;-74
2023/02/10 08:21:00;;;;;;;70.65;31.90;;;-3.80;99.30;;;;;;4131603;28;20030;-69
2023/02/10 08:23:02;;;;;;;65.30;30.15;;;-3.70;99.50;;;;;;4130536;28;20030;-66
2023/02/10 08:25:03;;;;;;;73.60;29.73;;;-3.80;98.70;;;;;;4131889;28;20096;-68
2023/02/10 08:27:05;;;;;;;68.72;27.38;;;-4.20;98.70;;;;;;4130201;28;20549;-80
2023/02/10 08:29:07;;;;;;;62.55;30.73;;;-4.50;99.50;;;;;;4131301;28;20035;-70
2023/02/10 08:31:09;;;;;;;63.10;27.58;;;-4.50;99.90;;;;;;4130111;28;20039;-72
2023/02/10 08:33:10;;;;;;;64.45;28.30;;;-4.30;99.90;;;;;;4131241;28;20379;-79
2023/02/10 08:35:11;;;;;;;59.45;26.35;;;-4.50;99.80;;;;;;4130116;28;20031;-79
2023/02/10 08:37:13;;;;;;;61.03;27.70;;;-4.50;99.90;;;;;;4130816;28;20046;-82
2023/02/10 08:39:15;;;;;;;66.43;26.35;;;-4.90;99.90;;;;;;4129894;28;20046;-72
2023/02/10 08:41:18;;;;;;;59.30;28.60;;;-4.80;99.90;;;;;;4130919;28;20038;-66
2023/02/10 08:43:19;;;;;;;66.93;29.42;;;-4.80;99.90;;;;;;4129874;28;20050;-79
2023/02/10 08:45:20;;;;;;;71.10;30.95;;;-5.10;99.90;;;;;;4130836;28;20022;-79
2023/02/10 08:47:21;;;;;;;72.05;29.15;;;-5.40;99.90;;;;;;4130103;28;20022;-81
2023/02/10 08:49:24;;;;;;;74.00;31.42;;;-5.50;99.90;;;;;;4129217;28;20450;-79
2023/02/10 08:51:26;;;;;;;70.35;29.05;;;-5.60;99.90;;;;;;4130264;28;20437;-66
2023/02/10 08:53:29;;;;;;;64.38;27.45;;;-5.50;99.90;;;;;;4129976;28;20019;-66
2023/02/10 08:55:30;;;;;;;69.72;27.95;;;-5.50;99.90;;;;;;4130548;28;20050;-66
2023/02/10 08:57:31;;;;;;;66.60;29.90;;;-5.60;99.90;;;;;;4129392;28;20038;-77
2023/02/10 08:59:32;;;;;;;65.28;29.45;;;-5.20;99.90;;;;;;4130699;28;20189;-74
2023/02/10 09:01:33;;;;;;;69.00;27.40;;;-4.70;99.90;;;;;;4128244;28;20477;-72
2023/02/10 09:03:34;;;;;;;73.38;28.63;;;-4.70;99.90;;;;;;4131045;28;20096;-66
2023/02/10 09:05:36;;;;;;;65.15;29.10;;;-4.30;99.90;;;;;;4129943;28;20466;-69
2023/02/10 09:07:38;;;;;;;67.50;28.75;;;-4.00;99.90;;;;;;4129011;28;20072;-79
2023/02/10 09:09:42;;;;;;;77.68;30.33;;;-4.00;99.90;;;;;;4129811;28;20530;-67
2023/02/10 09:11:44;;;;;;;63.13;28.90;;;-4.30;99.90;;;;;;4130009;28;20042;-66
2023/02/10 09:13:46;;;;;;;76.72;30.40;;;-4.40;99.90;;;;;;4129495;28;20030;-81
2023/02/10 09:15:47;;;;;;;64.72;29.33;;;-4.30;99.90;;;;;;4130397;28;20046;-64
2023/02/10 09:17:48;;;;;;;62.25;29.80;;;-4.30;99.90;;;;;;4129445;28;20509;-79
2023/02/10 09:19:49;;;;;;;60.60;27.85;;;-4.40;99.90;;;;;;4130284;28;20100;-80
2023/02/10 09:21:50;;;;;;;61.38;27.77;;;-4.80;99.90;;;;;;4129500;28;20449;-68
2023/02/10 09:23:52;;;;;;;68.22;30.67;;;-4.90;99.90;;;;;;4129552;28;20034;-66
2023/02/10 09:25:57;;;;;;;73.03;30.90;;;-4.90;99.90;;;;;;4129646;28;20038;-78
2023/02/10 09:27:58;;;;;;;72.10;31.58;;;-4.90;99.90;;;;;;4129237;28;20015;-71
2023/02/10 09:30:00;;;;;;;69.28;30.17;;;-4.70;99.90;;;;;;4129263;28;20120;-78
2023/02/10 09:32:01;;;;;;;67.82;27.55;;;-4.60;99.90;;;;;;4129245;28;20014;-69
2023/02/10 09:34:03;;;;;;;64.90;27.40;;;-4.70;99.90;;;;;;4130881;28;20168;-81
2023/02/10 09:36:07;;;;;;;60.05;28.15;;;-4.80;99.90;;;;;;4128873;28;20115;-75
2023/02/10 09:38:10;;;;;;;62.67;26.75;;;-4.70;99.90;;;;;;4130452;28;20034;-74
2023/02/10 09:40:23;;;;;;;61.42;27.95;;;-4.70;99.90;;;;;;4129489;28;20451;-78
2023/02/10 09:42:37;;;;;;;50.72;24.13;;;-4.50;99.90;;;;;;4130086;28;20031;-68
2023/02/10 09:44:42;;;;;;;62.72;24.52;;;-4.30;99.90;;;;;;4128890;28;20104;-77
2023/02/10 09:47:17;;;;;;;52.22;23.15;;;-4.20;99.90;;;;;;4130423;28;20034;-68
2023/02/10 09:49:39;;;;;;;54.08;23.75;;;-4.40;99.90;;;;;;4128883;28;20035;-80
2023/02/10 09:52:00;;;;;;;61.80;25.60;;;-4.50;99.90;;;;;;4129976;28;20030;-79
2023/02/10 09:54:02;;;;;;;;;;;-4.50;99.90;;;;;;4129525;28;20042;-77
2023/02/10 09:56:16;;;;;;;56.97;25.10;;;-4.60;99.90;;;;;;4127972;28;19917;-80
2023/02/10 09:58:37;;;;;;;64.88;24.98;;;-4.50;99.90;;;;;;4129339;28;20088;-76
2023/02/10 10:00:44;;;;;;;57.67;25.10;;;-4.40;99.90;;;;;;4130501;28;20027;-75
2023/02/10 10:02:53;;;;;;;61.50;25.67;;;-4.20;99.90;;;;;;4129757;28;20031;-73
2023/02/10 10:04:56;;;;;;;62.28;25.45;;;-4.10;99.90;;;;;;4129366;28;20085;-80
2023/02/10 10:07:12;;;;;;;58.75;24.20;;;-4.10;99.90;;;;;;4127086;28;20043;-78
2023/02/10 10:09:40;;;;;;;56.50;24.77;;;-4.10;99.90;;;;;;4129076;28;20097;-68
2023/02/10 10:11:52;;;;;;;59.30;24.90;;;-4.10;99.90;;;;;;4128518;28;20073;-66
2023/02/10 10:13:54;;;;;;;58.55;23.92;;;-4.00;99.90;;;;;;4128577;28;20027;-78
2023/02/10 10:16:23;;;;;;;56.50;24.38;;;-3.90;99.90;;;;;;4128627;28;20038;-67
2023/02/10 10:18:55;;;;;;;55.33;23.30;;;-3.70;99.90;;;;;;4127189;28;20097;-67
2023/02/10 10:21:10;;;;;;;54.40;23.75;;;-3.50;99.90;;;;;;4126250;28;20042;-66
2023/02/10 10:23:24;;;;;;;49.47;24.35;;;-3.30;99.90;;;;;;4128026;28;20437;-66
2023/02/10 10:25:55;;;;;;;49.38;22.75;;;-3.10;99.90;;;;;;4129141;28;20034;-74
2023/02/10 10:28:31;;;;;;;60.30;22.80;;;-3.20;99.90;;;;;;4123049;28;20042;-78